sensor_id;sensor_type;location;lat;lon;timestamp;pressure;altitude;pressure_sealevel;temperature;humidity
37852;BME280;23691;52.486;4.650;2023-04-15T00:00:28;100947.91;;;11.45;61.24
37852;BME280;23691;52.486;4.650;2023-04-15T00:02:54;100950.38;;;11.46;61.06
37852;BME280;23691;52.486;4.650;2023-04-15T00:05:20;100949.72;;;11.44;60.92
37852;BME280;23691;52.486;4.650;2023-04-15T00:07:45;100946.03;;;11.37;61.08
37852;BME280;23691;52.486;4.650;2023-04-15T00:10:12;100946.22;;;11.35;61.12
37852;BME280;23691;52.486;4.650;2023-04-15T00:12:39;100953.06;;;11.38;61.02
37852;BME280;23691;52.486;4.650;2023-04-15T00:15:08;100952.41;;;11.36;61.04
37852;BME280;23691;52.486;4.650;2023-04-15T00:17:37;100943.00;;;11.32;61.06
37852;BME280;23691;52.486;4.650;2023-04-15T00:20:04;100942.19;;;11.31;61.03
37852;BME280;23691;52.486;4.650;2023-04-15T00:22:32;100941.50;;;11.29;61.14
37852;BME280;23691;52.486;4.650;2023-04-15T00:24:57;100955.22;;;11.26;61.24
37852;BME280;23691;52.486;4.650;2023-04-15T00:27:23;100953.56;;;11.25;61.24
37852;BME280;23691;52.486;4.650;2023-04-15T00:29:48;100961.28;;;11.20;61.38
37852;BME280;23691;52.486;4.650;2023-04-15T00:32:16;100957.09;;;11.17;61.48
37852;BME280;23691;52.486;4.650;2023-04-15T00:34:45;100949.53;;;11.13;61.49
37852;BME280;23691;52.486;4.650;2023-04-15T00:37:14;100954.06;;;11.12;61.37
37852;BME280;23691;52.486;4.650;2023-04-15T00:39:50;100948.19;;;11.09;61.32
37852;BME280;23691;52.486;4.650;2023-04-15T00:42:17;100954.38;;;11.09;61.57
37852;BME280;23691;52.486;4.650;2023-04-15T00:44:46;100957.38;;;11.06;61.37
37852;BME280;23691;52.486;4.650;2023-04-15T00:47:11;100956.22;;;11.01;61.69
37852;BME280;23691;52.486;4.650;2023-04-15T00:49:39;100961.03;;;10.97;61.84
37852;BME280;23691;52.486;4.650;2023-04-15T00:52:07;100965.72;;;10.95;61.89
37852;BME280;23691;52.486;4.650;2023-04-15T00:54:37;100964.41;;;10.91;61.97
37852;BME280;23691;52.486;4.650;2023-04-15T00:57:05;100971.59;;;10.90;61.87
37852;BME280;23691;52.486;4.650;2023-04-15T00:59:32;100967.75;;;10.93;61.70
37852;BME280;23691;52.486;4.650;2023-04-15T01:01:58;100971.75;;;10.97;61.67
37852;BME280;23691;52.486;4.650;2023-04-15T01:04:24;100971.25;;;10.93;61.49
37852;BME280;23691;52.486;4.650;2023-04-15T01:06:49;100967.06;;;10.91;61.67
37852;BME280;23691;52.486;4.650;2023-04-15T01:09:17;100968.91;;;10.90;61.64
37852;BME280;23691;52.486;4.650;2023-04-15T01:11:48;100965.03;;;10.85;61.49
37852;BME280;23691;52.486;4.650;2023-04-15T01:14:20;100971.72;;;10.81;61.72
37852;BME280;23691;52.486;4.650;2023-04-15T01:16:48;100969.34;;;10.78;61.59
37852;BME280;23691;52.486;4.650;2023-04-15T01:19:14;100975.03;;;10.74;61.77
37852;BME280;23691;52.486;4.650;2023-04-15T01:21:41;100974.38;;;10.72;61.66
37852;BME280;23691;52.486;4.650;2023-04-15T01:24:08;100978.06;;;10.71;61.59
37852;BME280;23691;52.486;4.650;2023-04-15T01:26:37;100971.34;;;10.67;61.57
37852;BME280;23691;52.486;4.650;2023-04-15T01:29:06;100970.16;;;10.62;61.61
37852;BME280;23691;52.486;4.650;2023-04-15T01:31:31;100977.50;;;10.60;61.98
37852;BME280;23691;52.486;4.650;2023-04-15T01:33:57;100978.34;;;10.60;61.78
37852;BME280;23691;52.486;4.650;2023-04-15T01:36:23;100978.34;;;10.60;61.79
37852;BME280;23691;52.486;4.650;2023-04-15T01:38:49;100974.81;;;10.60;61.66
37852;BME280;23691;52.486;4.650;2023-04-15T01:41:15;100971.66;;;10.56;61.74
37852;BME280;23691;52.486;4.650;2023-04-15T01:43:44;100979.47;;;10.49;61.95
37852;BME280;23691;52.486;4.650;2023-04-15T01:46:09;100974.59;;;10.45;61.80
37852;BME280;23691;52.486;4.650;2023-04-15T01:48:48;100979.25;;;10.43;62.24
37852;BME280;23691;52.486;4.650;2023-04-15T01:51:18;100980.28;;;10.42;62.21
37852;BME280;23691;52.486;4.650;2023-04-15T01:53:44;100982.75;;;10.35;62.36
37852;BME280;23691;52.486;4.650;2023-04-15T01:56:12;100977.72;;;10.32;62.55
37852;BME280;23691;52.486;4.650;2023-04-15T01:58:41;100980.97;;;10.26;62.62
37852;BME280;23691;52.486;4.650;2023-04-15T02:01:09;100980.16;;;10.25;62.74
37852;BME280;23691;52.486;4.650;2023-04-15T02:03:39;100985.00;;;10.22;63.21
37852;BME280;23691;52.486;4.650;2023-04-15T02:06:04;100983.28;;;10.21;63.24
37852;BME280;23691;52.486;4.650;2023-04-15T02:08:30;100988.81;;;10.19;63.32
37852;BME280;23691;52.486;4.650;2023-04-15T02:10:57;100987.31;;;10.17;63.87
37852;BME280;23691;52.486;4.650;2023-04-15T02:13:22;100991.13;;;10.14;63.91
37852;BME280;23691;52.486;4.650;2023-04-15T02:15:50;100992.13;;;10.13;64.10
37852;BME280;23691;52.486;4.650;2023-04-15T02:18:16;100991.78;;;10.16;64.12
37852;BME280;23691;52.486;4.650;2023-04-15T02:20:45;101003.13;;;10.10;64.47
37852;BME280;23691;52.486;4.650;2023-04-15T02:23:11;101003.44;;;10.07;64.54
37852;BME280;23691;52.486;4.650;2023-04-15T02:25:40;100998.41;;;10.04;64.81
37852;BME280;23691;52.486;4.650;2023-04-15T02:28:08;101002.44;;;10.08;65.00
37852;BME280;23691;52.486;4.650;2023-04-15T02:30:36;101000.13;;;10.13;64.57
37852;BME280;23691;52.486;4.650;2023-04-15T02:33:02;101004.31;;;10.16;64.64
37852;BME280;23691;52.486;4.650;2023-04-15T02:35:31;101008.50;;;10.18;64.56
37852;BME280;23691;52.486;4.650;2023-04-15T02:37:56;101006.31;;;10.14;64.68
37852;BME280;23691;52.486;4.650;2023-04-15T02:40:22;101010.69;;;10.15;64.67
37852;BME280;23691;52.486;4.650;2023-04-15T02:42:52;101011.66;;;10.14;64.64
37852;BME280;23691;52.486;4.650;2023-04-15T02:45:25;101023.88;;;10.16;64.88
37852;BME280;23691;52.486;4.650;2023-04-15T02:47:52;101017.53;;;10.17;64.96
37852;BME280;23691;52.486;4.650;2023-04-15T02:50:20;101023.88;;;10.16;64.71
37852;BME280;23691;52.486;4.650;2023-04-15T02:52:53;101020.84;;;10.11;65.13
37852;BME280;23691;52.486;4.650;2023-04-15T02:55:22;101023.81;;;10.08;65.08
37852;BME280;23691;52.486;4.650;2023-04-15T02:57:54;101016.63;;;10.08;65.54
37852;BME280;23691;52.486;4.650;2023-04-15T03:00:23;101022.81;;;10.09;65.39
37852;BME280;23691;52.486;4.650;2023-04-15T03:02:49;101023.16;;;10.06;65.86
37852;BME280;23691;52.486;4.650;2023-04-15T03:05:21;101031.63;;;10.01;66.13
37852;BME280;23691;52.486;4.650;2023-04-15T03:07:50;101028.13;;;10.01;66.32
37852;BME280;23691;52.486;4.650;2023-04-15T03:10:16;101029.28;;;9.98;66.46
37852;BME280;23691;52.486;4.650;2023-04-15T03:12:41;101032.09;;;9.97;66.67
37852;BME280;23691;52.486;4.650;2023-04-15T03:15:08;101036.59;;;9.96;66.88
37852;BME280;23691;52.486;4.650;2023-04-15T03:17:33;101035.31;;;10.00;66.87
37852;BME280;23691;52.486;4.650;2023-04-15T03:20:03;101043.66;;;9.97;66.99
37852;BME280;23691;52.486;4.650;2023-04-15T03:22:30;101039.13;;;9.98;67.20
37852;BME280;23691;52.486;4.650;2023-04-15T03:24:56;101056.84;;;9.99;67.24
37852;BME280;23691;52.486;4.650;2023-04-15T03:27:21;101050.13;;;9.95;67.55
37852;BME280;23691;52.486;4.650;2023-04-15T03:29:47;101051.94;;;9.94;67.53
37852;BME280;23691;52.486;4.650;2023-04-15T03:32:13;101057.28;;;9.94;67.49
37852;BME280;23691;52.486;4.650;2023-04-15T03:34:42;101060.16;;;9.93;67.74
37852;BME280;23691;52.486;4.650;2023-04-15T03:37:13;101069.63;;;9.87;67.97
37852;BME280;23691;52.486;4.650;2023-04-15T03:39:39;101069.09;;;9.83;68.24
37852;BME280;23691;52.486;4.650;2023-04-15T03:42:04;101071.06;;;9.81;68.26
37852;BME280;23691;52.486;4.650;2023-04-15T03:44:30;101069.41;;;9.80;68.19
37852;BME280;23691;52.486;4.650;2023-04-15T03:46:57;101084.28;;;9.83;68.30
37852;BME280;23691;52.486;4.650;2023-04-15T03:49:36;101078.38;;;9.79;68.35
37852;BME280;23691;52.486;4.650;2023-04-15T03:52:01;101082.06;;;9.78;68.46
37852;BME280;23691;52.486;4.650;2023-04-15T03:54:27;101079.06;;;9.81;68.59
37852;BME280;23691;52.486;4.650;2023-04-15T03:56:52;101086.94;;;9.83;68.68
37852;BME280;23691;52.486;4.650;2023-04-15T03:59:21;101088.94;;;9.81;68.53
37852;BME280;23691;52.486;4.650;2023-04-15T04:01:49;101080.91;;;9.81;68.70
37852;BME280;23691;52.486;4.650;2023-04-15T04:04:15;101090.22;;;9.77;68.65
37852;BME280;23691;52.486;4.650;2023-04-15T04:06:41;101098.41;;;9.75;68.78
37852;BME280;23691;52.486;4.650;2023-04-15T04:09:08;101092.69;;;9.70;68.88
37852;BME280;23691;52.486;4.650;2023-04-15T04:11:37;101094.50;;;9.70;69.31
37852;BME280;23691;52.486;4.650;2023-04-15T04:14:03;101095.81;;;9.65;69.38
37852;BME280;23691;52.486;4.650;2023-04-15T04:16:29;101100.97;;;9.67;69.30
37852;BME280;23691;52.486;4.650;2023-04-15T04:18:55;101102.69;;;9.68;69.31
37852;BME280;23691;52.486;4.650;2023-04-15T04:21:20;101104.53;;;9.67;69.42
37852;BME280;23691;52.486;4.650;2023-04-15T04:23:48;101110.31;;;9.63;69.46
37852;BME280;23691;52.486;4.650;2023-04-15T04:26:14;101105.94;;;9.62;69.41
37852;BME280;23691;52.486;4.650;2023-04-15T04:28:40;101107.34;;;9.66;69.30
37852;BME280;23691;52.486;4.650;2023-04-15T04:31:09;101113.00;;;9.63;69.29
37852;BME280;23691;52.486;4.650;2023-04-15T04:33:36;101117.63;;;9.61;69.57
37852;BME280;23691;52.486;4.650;2023-04-15T04:36:09;101114.88;;;9.53;69.79
37852;BME280;23691;52.486;4.650;2023-04-15T04:38:37;101124.72;;;9.52;69.81
37852;BME280;23691;52.486;4.650;2023-04-15T04:41:04;101126.72;;;9.50;69.84
37852;BME280;23691;52.486;4.650;2023-04-15T04:43:29;101127.16;;;9.45;70.18
37852;BME280;23691;52.486;4.650;2023-04-15T04:45:55;101137.53;;;9.49;70.32
37852;BME280;23691;52.486;4.650;2023-04-15T04:48:28;101142.75;;;9.50;70.13
37852;BME280;23691;52.486;4.650;2023-04-15T04:50:53;101147.53;;;9.46;70.30
37852;BME280;23691;52.486;4.650;2023-04-15T04:53:30;101149.06;;;9.49;70.12
37852;BME280;23691;52.486;4.650;2023-04-15T04:55:56;101144.84;;;9.46;70.08
37852;BME280;23691;52.486;4.650;2023-04-15T04:58:22;101158.81;;;9.40;70.21
37852;BME280;23691;52.486;4.650;2023-04-15T05:00:50;101153.47;;;9.40;70.34
37852;BME280;23691;52.486;4.650;2023-04-15T05:03:16;101161.19;;;9.43;70.33
37852;BME280;23691;52.486;4.650;2023-04-15T05:05:42;101160.63;;;9.40;70.29
37852;BME280;23691;52.486;4.650;2023-04-15T05:08:14;101168.94;;;9.37;70.57
37852;BME280;23691;52.486;4.650;2023-04-15T05:10:42;101173.75;;;9.33;70.49
37852;BME280;23691;52.486;4.650;2023-04-15T05:13:09;101176.69;;;9.30;70.54
37852;BME280;23691;52.486;4.650;2023-04-15T05:15:35;101188.25;;;9.31;70.47
37852;BME280;23691;52.486;4.650;2023-04-15T05:18:04;101190.53;;;9.26;70.38
37852;BME280;23691;52.486;4.650;2023-04-15T05:20:32;101193.84;;;9.28;70.46
37852;BME280;23691;52.486;4.650;2023-04-15T05:23:00;101203.13;;;9.33;70.34
37852;BME280;23691;52.486;4.650;2023-04-15T05:25:29;101203.97;;;9.34;70.20
37852;BME280;23691;52.486;4.650;2023-04-15T05:27:55;101208.06;;;9.28;70.35
37852;BME280;23691;52.486;4.650;2023-04-15T05:30:21;101208.91;;;9.29;70.43
37852;BME280;23691;52.486;4.650;2023-04-15T05:32:48;101208.34;;;9.25;70.47
37852;BME280;23691;52.486;4.650;2023-04-15T05:35:17;101221.16;;;9.21;70.72
37852;BME280;23691;52.486;4.650;2023-04-15T05:37:42;101217.66;;;9.21;70.99
37852;BME280;23691;52.486;4.650;2023-04-15T05:40:08;101222.56;;;9.26;70.81
37852;BME280;23691;52.486;4.650;2023-04-15T05:42:37;101221.97;;;9.32;70.89
37852;BME280;23691;52.486;4.650;2023-04-15T05:45:03;101226.72;;;9.38;70.71
37852;BME280;23691;52.486;4.650;2023-04-15T05:47:34;101227.13;;;9.43;70.57
37852;BME280;23691;52.486;4.650;2023-04-15T05:50:03;101235.66;;;9.46;70.59
37852;BME280;23691;52.486;4.650;2023-04-15T05:52:32;101240.16;;;9.46;71.22
37852;BME280;23691;52.486;4.650;2023-04-15T05:54:57;101246.03;;;9.50;71.10
37852;BME280;23691;52.486;4.650;2023-04-15T05:57:23;101253.47;;;9.56;70.95
37852;BME280;23691;52.486;4.650;2023-04-15T05:59:48;101257.69;;;9.58;70.83
37852;BME280;23691;52.486;4.650;2023-04-15T06:02:16;101263.56;;;9.62;71.22
37852;BME280;23691;52.486;4.650;2023-04-15T06:04:41;101266.34;;;9.70;71.09
37852;BME280;23691;52.486;4.650;2023-04-15T06:07:07;101279.94;;;9.77;71.04
37852;BME280;23691;52.486;4.650;2023-04-15T06:09:32;101280.13;;;9.75;71.17
37852;BME280;23691;52.486;4.650;2023-04-15T06:11:58;101283.31;;;9.79;71.25
37852;BME280;23691;52.486;4.650;2023-04-15T06:14:23;101285.53;;;9.83;70.81
37852;BME280;23691;52.486;4.650;2023-04-15T06:16:48;101291.28;;;9.88;71.34
37852;BME280;23691;52.486;4.650;2023-04-15T06:19:14;101300.00;;;9.91;71.05
37852;BME280;23691;52.486;4.650;2023-04-15T06:21:43;101307.25;;;9.98;71.56
37852;BME280;23691;52.486;4.650;2023-04-15T06:24:08;101311.84;;;10.06;71.03
37852;BME280;23691;52.486;4.650;2023-04-15T06:26:34;101310.44;;;10.12;71.30
37852;BME280;23691;52.486;4.650;2023-04-15T06:29:02;101316.00;;;10.18;71.30
37852;BME280;23691;52.486;4.650;2023-04-15T06:31:27;101322.88;;;10.21;70.88
37852;BME280;23691;52.486;4.650;2023-04-15T06:33:53;101326.81;;;10.26;70.88
37852;BME280;23691;52.486;4.650;2023-04-15T06:36:18;101330.75;;;10.32;70.98
37852;BME280;23691;52.486;4.650;2023-04-15T06:38:43;101331.13;;;10.37;70.76
37852;BME280;23691;52.486;4.650;2023-04-15T06:41:09;101334.19;;;10.42;71.07
37852;BME280;23691;52.486;4.650;2023-04-15T06:43:34;101339.78;;;10.49;70.84
37852;BME280;23691;52.486;4.650;2023-04-15T06:46:00;101345.34;;;10.56;70.86
37852;BME280;23691;52.486;4.650;2023-04-15T06:48:26;101352.09;;;10.60;70.70
37852;BME280;23691;52.486;4.650;2023-04-15T06:50:51;101360.50;;;10.65;70.68
37852;BME280;23691;52.486;4.650;2023-04-15T06:53:17;101355.84;;;10.67;70.86
37852;BME280;23691;52.486;4.650;2023-04-15T06:55:43;101350.88;;;10.72;70.89
37852;BME280;23691;52.486;4.650;2023-04-15T06:58:08;101358.44;;;10.77;70.94
37852;BME280;23691;52.486;4.650;2023-04-15T07:00:34;101362.88;;;10.86;70.65
37852;BME280;23691;52.486;4.650;2023-04-15T07:02:59;101365.09;;;10.90;70.71
37852;BME280;23691;52.486;4.650;2023-04-15T07:05:28;101363.47;;;10.98;70.55
37852;BME280;23691;52.486;4.650;2023-04-15T07:07:53;101364.38;;;11.06;70.57
37852;BME280;23691;52.486;4.650;2023-04-15T07:10:22;101368.97;;;11.14;70.06
37852;BME280;23691;52.486;4.650;2023-04-15T07:12:48;101368.50;;;11.18;70.43
37852;BME280;23691;52.486;4.650;2023-04-15T07:15:15;101377.06;;;11.22;70.46
37852;BME280;23691;52.486;4.650;2023-04-15T07:17:40;101379.44;;;11.25;70.31
37852;BME280;23691;52.486;4.650;2023-04-15T07:20:07;101386.84;;;11.31;70.14
37852;BME280;23691;52.486;4.650;2023-04-15T07:22:53;101386.06;;;11.39;70.03
37852;BME280;23691;52.486;4.650;2023-04-15T07:25:19;101394.31;;;11.46;70.01
37852;BME280;23691;52.486;4.650;2023-04-15T07:27:45;101400.03;;;11.51;69.60
37852;BME280;23691;52.486;4.650;2023-04-15T07:30:11;101398.56;;;11.56;69.51
37852;BME280;23691;52.486;4.650;2023-04-15T07:32:38;101398.09;;;11.61;69.21
37852;BME280;23691;52.486;4.650;2023-04-15T07:35:04;101399.84;;;11.70;68.74
37852;BME280;23691;52.486;4.650;2023-04-15T07:37:30;101398.06;;;11.79;68.74
37852;BME280;23691;52.486;4.650;2023-04-15T07:39:55;101411.13;;;11.82;68.32
37852;BME280;23691;52.486;4.650;2023-04-15T07:42:21;101414.91;;;11.89;68.16
37852;BME280;23691;52.486;4.650;2023-04-15T07:44:46;101419.28;;;11.98;67.85
37852;BME280;23691;52.486;4.650;2023-04-15T07:47:12;101423.00;;;12.06;67.60
37852;BME280;23691;52.486;4.650;2023-04-15T07:49:37;101430.63;;;12.18;67.16
37852;BME280;23691;52.486;4.650;2023-04-15T07:52:03;101429.97;;;12.24;66.86
37852;BME280;23691;52.486;4.650;2023-04-15T07:54:28;101430.19;;;12.31;66.35
37852;BME280;23691;52.486;4.650;2023-04-15T07:56:56;101437.56;;;12.37;66.09
37852;BME280;23691;52.486;4.650;2023-04-15T07:59:21;101442.13;;;12.45;65.86
37852;BME280;23691;52.486;4.650;2023-04-15T08:01:47;101447.69;;;12.52;65.39
37852;BME280;23691;52.486;4.650;2023-04-15T08:04:13;101462.50;;;12.64;65.18
37852;BME280;23691;52.486;4.650;2023-04-15T08:06:38;101458.16;;;12.71;64.72
37852;BME280;23691;52.486;4.650;2023-04-15T08:09:04;101462.03;;;12.77;64.56
37852;BME280;23691;52.486;4.650;2023-04-15T08:11:30;101468.75;;;12.73;63.65
37852;BME280;23691;52.486;4.650;2023-04-15T08:13:56;101460.19;;;12.77;63.42
37852;BME280;23691;52.486;4.650;2023-04-15T08:16:22;101465.59;;;12.85;63.16
37852;BME280;23691;52.486;4.650;2023-04-15T08:18:50;101472.97;;;12.92;62.59
37852;BME280;23691;52.486;4.650;2023-04-15T08:21:16;101492.44;;;12.94;62.19
37852;BME280;23691;52.486;4.650;2023-04-15T08:23:43;101477.84;;;12.96;61.86
37852;BME280;23691;52.486;4.650;2023-04-15T08:26:09;101484.25;;;13.03;61.51
37852;BME280;23691;52.486;4.650;2023-04-15T08:28:37;101494.16;;;13.11;61.33
37852;BME280;23691;52.486;4.650;2023-04-15T08:31:02;101491.31;;;13.21;61.25
37852;BME280;23691;52.486;4.650;2023-04-15T08:33:28;101493.41;;;13.27;61.20
37852;BME280;23691;52.486;4.650;2023-04-15T08:35:53;101504.00;;;13.37;60.81
37852;BME280;23691;52.486;4.650;2023-04-15T08:38:18;101501.44;;;13.43;60.47
37852;BME280;23691;52.486;4.650;2023-04-15T08:40:44;101503.97;;;13.45;60.48
37852;BME280;23691;52.486;4.650;2023-04-15T08:43:14;101500.13;;;13.39;60.36
37852;BME280;23691;52.486;4.650;2023-04-15T08:45:40;101506.34;;;13.40;60.25
37852;BME280;23691;52.486;4.650;2023-04-15T08:48:06;101516.56;;;13.36;59.93
37852;BME280;23691;52.486;4.650;2023-04-15T08:50:34;101515.56;;;13.37;59.82
37852;BME280;23691;52.486;4.650;2023-04-15T08:53:00;101521.28;;;13.42;59.39
37852;BME280;23691;52.486;4.650;2023-04-15T08:55:28;101522.97;;;13.43;58.82
37852;BME280;23691;52.486;4.650;2023-04-15T08:57:55;101532.88;;;13.51;58.93
37852;BME280;23691;52.486;4.650;2023-04-15T09:00:21;101534.75;;;13.59;58.88
37852;BME280;23691;52.486;4.650;2023-04-15T09:02:47;101540.28;;;13.65;58.56
37852;BME280;23691;52.486;4.650;2023-04-15T09:05:13;101533.41;;;13.71;58.56
37852;BME280;23691;52.486;4.650;2023-04-15T09:07:38;101541.13;;;13.82;58.31
37852;BME280;23691;52.486;4.650;2023-04-15T09:10:04;101550.72;;;13.77;57.92
37852;BME280;23691;52.486;4.650;2023-04-15T09:12:33;101551.88;;;13.74;57.72
37852;BME280;23691;52.486;4.650;2023-04-15T09:14:59;101557.41;;;13.72;57.65
37852;BME280;23691;52.486;4.650;2023-04-15T09:17:25;101557.09;;;13.75;57.15
37852;BME280;23691;52.486;4.650;2023-04-15T09:20:14;101555.56;;;13.89;56.95
37852;BME280;23691;52.486;4.650;2023-04-15T09:22:39;101557.59;;;13.95;56.82
37852;BME280;23691;52.486;4.650;2023-04-15T09:25:26;101565.47;;;14.05;56.81
37852;BME280;23691;52.486;4.650;2023-04-15T09:27:55;101569.84;;;14.14;56.88
37852;BME280;23691;52.486;4.650;2023-04-15T09:30:21;101576.75;;;14.25;56.21
37852;BME280;23691;52.486;4.650;2023-04-15T09:35:20;101583.59;;;14.36;55.85
37852;BME280;23691;52.486;4.650;2023-04-15T09:37:46;101588.66;;;14.47;55.62
37852;BME280;23691;52.486;4.650;2023-04-15T09:40:12;101593.69;;;14.42;55.44
37852;BME280;23691;52.486;4.650;2023-04-15T09:42:54;101598.75;;;14.45;55.10
37852;BME280;23691;52.486;4.650;2023-04-15T09:45:20;101600.09;;;14.57;55.03
37852;BME280;23691;52.486;4.650;2023-04-15T09:47:46;101599.97;;;14.90;54.51
37852;BME280;23691;52.486;4.650;2023-04-15T09:50:11;101604.91;;;15.18;54.39
37852;BME280;23691;52.486;4.650;2023-04-15T09:52:42;101605.91;;;15.17;54.10
37852;BME280;23691;52.486;4.650;2023-04-15T09:55:08;101610.84;;;15.05;54.07
37852;BME280;23691;52.486;4.650;2023-04-15T09:57:35;101618.47;;;15.01;53.62
37852;BME280;23691;52.486;4.650;2023-04-15T10:00:05;101625.53;;;15.02;53.60
37852;BME280;23691;52.486;4.650;2023-04-15T10:02:34;101615.06;;;15.08;53.60
37852;BME280;23691;52.486;4.650;2023-04-15T10:05:01;101623.44;;;15.13;53.28
37852;BME280;23691;52.486;4.650;2023-04-15T10:07:29;101607.50;;;15.34;52.61
37852;BME280;23691;52.486;4.650;2023-04-15T10:09:55;101616.66;;;15.56;52.34
37852;BME280;23691;52.486;4.650;2023-04-15T10:12:23;101615.31;;;15.83;51.59
37852;BME280;23691;52.486;4.650;2023-04-15T10:15:03;101624.47;;;15.74;52.30
37852;BME280;23691;52.486;4.650;2023-04-15T10:17:31;101630.28;;;15.63;51.99
37852;BME280;23691;52.486;4.650;2023-04-15T10:20:02;101629.09;;;15.57;52.02
37852;BME280;23691;52.486;4.650;2023-04-15T10:22:29;101626.78;;;15.54;51.94
37852;BME280;23691;52.486;4.650;2023-04-15T10:24:55;101636.88;;;15.60;51.77
37852;BME280;23691;52.486;4.650;2023-04-15T10:27:21;101628.78;;;15.60;51.84
37852;BME280;23691;52.486;4.650;2023-04-15T10:29:49;101630.66;;;15.52;51.25
37852;BME280;23691;52.486;4.650;2023-04-15T10:32:16;101634.19;;;15.52;51.12
37852;BME280;23691;52.486;4.650;2023-04-15T10:34:44;101628.31;;;15.80;50.64
37852;BME280;23691;52.486;4.650;2023-04-15T10:37:10;101629.34;;;16.17;50.30
37852;BME280;23691;52.486;4.650;2023-04-15T10:44:31;101645.72;;;16.38;50.32
37852;BME280;23691;52.486;4.650;2023-04-15T10:46:57;101648.63;;;16.37;50.14
37852;BME280;23691;52.486;4.650;2023-04-15T10:49:25;101645.16;;;16.43;49.76
37852;BME280;23691;52.486;4.650;2023-04-15T10:51:52;101646.09;;;16.50;49.39
37852;BME280;23691;52.486;4.650;2023-04-15T10:57:08;101655.75;;;16.97;48.51
37852;BME280;23691;52.486;4.650;2023-04-15T11:02:46;101668.41;;;17.26;48.03
37852;BME280;23691;52.486;4.650;2023-04-15T11:05:16;101669.16;;;17.20;47.64
37852;BME280;23691;52.486;4.650;2023-04-15T11:07:50;101664.13;;;17.17;47.58
37852;BME280;23691;52.486;4.650;2023-04-15T11:12:46;101671.44;;;17.02;46.81
37852;BME280;23691;52.486;4.650;2023-04-15T11:15:35;101684.38;;;17.06;46.84
37852;BME280;23691;52.486;4.650;2023-04-15T11:18:14;101689.41;;;16.94;47.07
37852;BME280;23691;52.486;4.650;2023-04-15T11:20:48;101685.44;;;16.67;46.68
37852;BME280;23691;52.486;4.650;2023-04-15T11:23:26;101684.56;;;16.37;46.91
37852;BME280;23691;52.486;4.650;2023-04-15T11:25:54;101701.72;;;16.21;47.24
37852;BME280;23691;52.486;4.650;2023-04-15T11:28:24;101700.28;;;16.10;47.55
37852;BME280;23691;52.486;4.650;2023-04-15T11:30:50;101694.75;;;16.04;47.46
37852;BME280;23691;52.486;4.650;2023-04-15T11:33:15;101704.25;;;16.00;47.65
37852;BME280;23691;52.486;4.650;2023-04-15T11:35:42;101700.88;;;16.21;47.18
37852;BME280;23691;52.486;4.650;2023-04-15T11:38:12;101710.28;;;16.02;47.24
37852;BME280;23691;52.486;4.650;2023-04-15T11:40:47;101720.31;;;15.93;47.54
37852;BME280;23691;52.486;4.650;2023-04-15T11:43:19;101731.28;;;15.92;47.39
37852;BME280;23691;52.486;4.650;2023-04-15T11:45:56;101734.13;;;15.98;47.37
37852;BME280;23691;52.486;4.650;2023-04-15T11:48:26;101719.19;;;16.10;46.95
37852;BME280;23691;52.486;4.650;2023-04-15T11:50:59;101724.84;;;16.39;46.68
37852;BME280;23691;52.486;4.650;2023-04-15T11:53:48;101726.06;;;16.59;46.37
37852;BME280;23691;52.486;4.650;2023-04-15T11:56:22;101730.25;;;16.39;47.00
37852;BME280;23691;52.486;4.650;2023-04-15T11:58:51;101727.63;;;16.30;47.49
37852;BME280;23691;52.486;4.650;2023-04-15T12:01:17;101737.31;;;16.25;47.37
37852;BME280;23691;52.486;4.650;2023-04-15T12:03:47;101735.88;;;16.37;47.77
37852;BME280;23691;52.486;4.650;2023-04-15T12:06:21;101734.25;;;16.66;47.31
37852;BME280;23691;52.486;4.650;2023-04-15T12:08:51;101740.56;;;16.58;47.30
37852;BME280;23691;52.486;4.650;2023-04-15T12:11:18;101746.66;;;16.75;47.09
37852;BME280;23691;52.486;4.650;2023-04-15T12:13:48;101740.59;;;16.73;46.54
37852;BME280;23691;52.486;4.650;2023-04-15T12:16:20;101741.53;;;16.65;46.74
37852;BME280;23691;52.486;4.650;2023-04-15T12:18:59;101745.00;;;16.51;47.12
37852;BME280;23691;52.486;4.650;2023-04-15T12:21:26;101759.06;;;16.23;47.59
37852;BME280;23691;52.486;4.650;2023-04-15T12:23:57;101751.16;;;16.22;47.40
37852;BME280;23691;52.486;4.650;2023-04-15T12:26:33;101751.63;;;16.25;46.64
37852;BME280;23691;52.486;4.650;2023-04-15T12:29:03;101768.97;;;16.31;46.08
37852;BME280;23691;52.486;4.650;2023-04-15T12:31:35;101768.13;;;16.30;46.54
37852;BME280;23691;52.486;4.650;2023-04-15T12:34:06;101772.03;;;16.51;45.97
37852;BME280;23691;52.486;4.650;2023-04-15T12:36:32;101772.06;;;16.66;45.87
37852;BME280;23691;52.486;4.650;2023-04-15T12:39:04;101789.00;;;16.83;45.79
37852;BME280;23691;52.486;4.650;2023-04-15T12:41:31;101779.44;;;16.95;45.55
37852;BME280;23691;52.486;4.650;2023-04-15T12:43:56;101775.66;;;17.04;45.07
37852;BME280;23691;52.486;4.650;2023-04-15T12:46:23;101780.28;;;17.10;44.97
37852;BME280;23691;52.486;4.650;2023-04-15T12:48:49;101779.84;;;17.22;45.15
37852;BME280;23691;52.486;4.650;2023-04-15T12:51:16;101780.91;;;17.35;45.05
37852;BME280;23691;52.486;4.650;2023-04-15T12:53:41;101780.63;;;17.45;45.01
37852;BME280;23691;52.486;4.650;2023-04-15T12:56:09;101784.81;;;17.33;45.09
37852;BME280;23691;52.486;4.650;2023-04-15T12:58:37;101795.59;;;17.03;45.62
37852;BME280;23691;52.486;4.650;2023-04-15T13:01:03;101784.38;;;16.91;46.06
37852;BME280;23691;52.486;4.650;2023-04-15T13:03:28;101799.09;;;16.66;47.33
37852;BME280;23691;52.486;4.650;2023-04-15T13:05:54;101801.06;;;16.26;48.81
37852;BME280;23691;52.486;4.650;2023-04-15T13:08:19;101800.69;;;16.06;49.91
37852;BME280;23691;52.486;4.650;2023-04-15T13:10:46;101810.38;;;16.46;49.63